sensor_id;sensor_type;location;lat;lon;timestamp;temperature;humidity
59098;DHT22;44883;52.760;6.610;2022-08-07T00:00:58;12.40;99.90
59098;DHT22;44883;52.760;6.610;2022-08-07T00:03:23;12.40;99.90
59098;DHT22;44883;52.760;6.610;2022-08-07T00:05:51;12.40;99.90
59098;DHT22;44883;52.760;6.610;2022-08-07T00:08:18;12.40;99.90
59098;DHT22;44883;52.760;6.610;2022-08-07T00:10:44;12.30;99.90
59098;DHT22;44883;52.760;6.610;2022-08-07T00:13:09;12.20;99.90
59098;DHT22;44883;52.760;6.610;2022-08-07T00:15:36;12.20;99.90
59098;DHT22;44883;52.760;6.610;2022-08-07T00:18:02;12.20;99.90
59098;DHT22;44883;52.760;6.610;2022-08-07T00:20:27;12.20;99.90
59098;DHT22;44883;52.760;6.610;2022-08-07T00:22:53;12.20;99.90
59098;DHT22;44883;52.760;6.610;2022-08-07T00:25:19;12.10;99.90
59098;DHT22;44883;52.760;6.610;2022-08-07T00:27:44;12.10;99.90
59098;DHT22;44883;52.760;6.610;2022-08-07T00:30:10;12.10;99.90
59098;DHT22;44883;52.760;6.610;2022-08-07T00:32:36;12.10;99.90
59098;DHT22;44883;52.760;6.610;2022-08-07T00:35:01;12.10;99.90
59098;DHT22;44883;52.760;6.610;2022-08-07T00:37:27;12.10;99.90
59098;DHT22;44883;52.760;6.610;2022-08-07T00:39:52;12.10;99.90
59098;DHT22;44883;52.760;6.610;2022-08-07T00:42:21;12.10;99.90
59098;DHT22;44883;52.760;6.610;2022-08-07T00:44:46;12.10;99.90
59098;DHT22;44883;52.760;6.610;2022-08-07T00:47:12;12.00;99.90
59098;DHT22;44883;52.760;6.610;2022-08-07T00:49:37;12.00;99.90
59098;DHT22;44883;52.760;6.610;2022-08-07T00:52:08;11.90;99.90
59098;DHT22;44883;52.760;6.610;2022-08-07T00:54:33;11.80;99.90
59098;DHT22;44883;52.760;6.610;2022-08-07T00:56:59;11.70;99.90
59098;DHT22;44883;52.760;6.610;2022-08-07T00:59:25;11.60;99.90
59098;DHT22;44883;52.760;6.610;2022-08-07T01:01:51;11.70;99.90
59098;DHT22;44883;52.760;6.610;2022-08-07T01:04:17;11.70;99.90
59098;DHT22;44883;52.760;6.610;2022-08-07T01:06:44;11.60;99.90
59098;DHT22;44883;52.760;6.610;2022-08-07T01:09:10;11.60;99.90
59098;DHT22;44883;52.760;6.610;2022-08-07T01:11:36;11.60;99.90
59098;DHT22;44883;52.760;6.610;2022-08-07T01:14:03;11.60;99.90
59098;DHT22;44883;52.760;6.610;2022-08-07T01:16:29;11.50;99.90
59098;DHT22;44883;52.760;6.610;2022-08-07T01:18:55;11.40;99.90
59098;DHT22;44883;52.760;6.610;2022-08-07T01:21:21;11.30;99.90
59098;DHT22;44883;52.760;6.610;2022-08-07T01:23:50;11.20;99.90
59098;DHT22;44883;52.760;6.610;2022-08-07T01:26:17;11.20;99.90
59098;DHT22;44883;52.760;6.610;2022-08-07T01:28:47;11.30;99.90
59098;DHT22;44883;52.760;6.610;2022-08-07T01:31:17;11.30;99.90
59098;DHT22;44883;52.760;6.610;2022-08-07T01:33:45;11.30;99.90
59098;DHT22;44883;52.760;6.610;2022-08-07T01:36:11;11.40;99.90
59098;DHT22;44883;52.760;6.610;2022-08-07T01:38:38;11.40;99.90
59098;DHT22;44883;52.760;6.610;2022-08-07T01:41:04;11.40;99.90
59098;DHT22;44883;52.760;6.610;2022-08-07T01:43:31;11.40;99.90
59098;DHT22;44883;52.760;6.610;2022-08-07T01:45:58;11.40;99.90
59098;DHT22;44883;52.760;6.610;2022-08-07T01:48:24;11.30;99.90
59098;DHT22;44883;52.760;6.610;2022-08-07T01:51:06;11.30;99.90
59098;DHT22;44883;52.760;6.610;2022-08-07T01:53:33;11.30;99.90
59098;DHT22;44883;52.760;6.610;2022-08-07T01:56:03;11.30;99.90
59098;DHT22;44883;52.760;6.610;2022-08-07T01:58:33;11.40;99.90
59098;DHT22;44883;52.760;6.610;2022-08-07T02:01:03;11.40;99.90
59098;DHT22;44883;52.760;6.610;2022-08-07T02:03:33;11.40;99.90
59098;DHT22;44883;52.760;6.610;2022-08-07T02:06:04;11.40;99.90
59098;DHT22;44883;52.760;6.610;2022-08-07T02:08:35;11.40;99.90
59098;DHT22;44883;52.760;6.610;2022-08-07T02:11:03;11.40;99.90
59098;DHT22;44883;52.760;6.610;2022-08-07T02:13:31;11.40;99.90
59098;DHT22;44883;52.760;6.610;2022-08-07T02:15:59;11.50;99.90
59098;DHT22;44883;52.760;6.610;2022-08-07T02:18:29;11.50;99.90
59098;DHT22;44883;52.760;6.610;2022-08-07T02:20:56;11.40;99.90
59098;DHT22;44883;52.760;6.610;2022-08-07T02:23:24;11.40;99.90
59098;DHT22;44883;52.760;6.610;2022-08-07T02:25:54;11.50;99.90
59098;DHT22;44883;52.760;6.610;2022-08-07T02:28:21;11.40;99.90
59098;DHT22;44883;52.760;6.610;2022-08-07T02:30:50;11.40;99.90
59098;DHT22;44883;52.760;6.610;2022-08-07T02:33:17;11.40;99.90
59098;DHT22;44883;52.760;6.610;2022-08-07T02:35:44;11.40;99.90
59098;DHT22;44883;52.760;6.610;2022-08-07T02:38:11;11.30;99.90
59098;DHT22;44883;52.760;6.610;2022-08-07T02:40:38;11.30;99.90
59098;DHT22;44883;52.760;6.610;2022-08-07T02:43:05;11.30;99.90
59098;DHT22;44883;52.760;6.610;2022-08-07T02:45:32;11.30;99.90
59098;DHT22;44883;52.760;6.610;2022-08-07T02:47:58;11.30;99.90
59098;DHT22;44883;52.760;6.610;2022-08-07T02:50:24;11.30;99.90
59098;DHT22;44883;52.760;6.610;2022-08-07T02:52:57;11.20;99.90
59098;DHT22;44883;52.760;6.610;2022-08-07T02:55:29;11.30;99.90
59098;DHT22;44883;52.760;6.610;2022-08-07T02:58:01;11.30;99.90
59098;DHT22;44883;52.760;6.610;2022-08-07T03:00:27;11.20;99.90
59098;DHT22;44883;52.760;6.610;2022-08-07T03:02:55;11.20;99.90
59098;DHT22;44883;52.760;6.610;2022-08-07T03:05:22;11.10;99.90
59098;DHT22;44883;52.760;6.610;2022-08-07T03:07:48;11.10;99.90
59098;DHT22;44883;52.760;6.610;2022-08-07T03:10:14;11.10;99.90
59098;DHT22;44883;52.760;6.610;2022-08-07T03:12:44;11.20;99.90
59098;DHT22;44883;52.760;6.610;2022-08-07T03:15:11;11.20;99.90
59098;DHT22;44883;52.760;6.610;2022-08-07T03:17:36;11.10;99.90
59098;DHT22;44883;52.760;6.610;2022-08-07T03:20:04;11.10;99.90
59098;DHT22;44883;52.760;6.610;2022-08-07T03:22:31;11.10;99.90
59098;DHT22;44883;52.760;6.610;2022-08-07T03:24:58;11.10;99.90
59098;DHT22;44883;52.760;6.610;2022-08-07T03:27:24;11.10;99.90
59098;DHT22;44883;52.760;6.610;2022-08-07T03:29:51;11.00;99.90
59098;DHT22;44883;52.760;6.610;2022-08-07T03:32:22;11.00;99.90
59098;DHT22;44883;52.760;6.610;2022-08-07T03:34:50;10.90;99.90
59098;DHT22;44883;52.760;6.610;2022-08-07T03:37:18;10.90;99.90
59098;DHT22;44883;52.760;6.610;2022-08-07T03:39:46;10.90;99.90
59098;DHT22;44883;52.760;6.610;2022-08-07T03:42:13;10.90;99.90
59098;DHT22;44883;52.760;6.610;2022-08-07T03:44:39;10.90;99.90
59098;DHT22;44883;52.760;6.610;2022-08-07T03:47:06;10.90;99.90
59098;DHT22;44883;52.760;6.610;2022-08-07T03:49:33;10.90;99.90
59098;DHT22;44883;52.760;6.610;2022-08-07T03:51:59;10.80;99.90
59098;DHT22;44883;52.760;6.610;2022-08-07T03:54:26;10.70;99.90
59098;DHT22;44883;52.760;6.610;2022-08-07T03:56:53;10.70;99.90
59098;DHT22;44883;52.760;6.610;2022-08-07T03:59:20;10.70;99.90
59098;DHT22;44883;52.760;6.610;2022-08-07T04:01:46;10.80;99.90
59098;DHT22;44883;52.760;6.610;2022-08-07T04:04:15;10.80;99.90
59098;DHT22;44883;52.760;6.610;2022-08-07T04:06:41;10.80;99.90
59098;DHT22;44883;52.760;6.610;2022-08-07T04:09:08;10.70;99.90
59098;DHT22;44883;52.760;6.610;2022-08-07T04:11:35;10.70;99.90
59098;DHT22;44883;52.760;6.610;2022-08-07T04:14:02;10.80;99.90
59098;DHT22;44883;52.760;6.610;2022-08-07T04:16:28;10.70;99.90
59098;DHT22;44883;52.760;6.610;2022-08-07T04:18:54;10.70;99.90
59098;DHT22;44883;52.760;6.610;2022-08-07T04:21:19;10.60;99.90
59098;DHT22;44883;52.760;6.610;2022-08-07T04:23:45;10.60;99.90
59098;DHT22;44883;52.760;6.610;2022-08-07T04:26:12;10.60;99.90
59098;DHT22;44883;52.760;6.610;2022-08-07T04:28:39;10.60;99.90
59098;DHT22;44883;52.760;6.610;2022-08-07T04:31:05;10.60;99.90
59098;DHT22;44883;52.760;6.610;2022-08-07T04:33:31;10.60;99.90
59098;DHT22;44883;52.760;6.610;2022-08-07T04:35:57;10.60;99.90
59098;DHT22;44883;52.760;6.610;2022-08-07T04:38:24;10.80;99.90
59098;DHT22;44883;52.760;6.610;2022-08-07T04:40:51;10.90;99.90
59098;DHT22;44883;52.760;6.610;2022-08-07T04:43:24;10.90;99.90
59098;DHT22;44883;52.760;6.610;2022-08-07T04:51:36;11.20;99.90
59098;DHT22;44883;52.760;6.610;2022-08-07T04:56:48;11.20;99.90
59098;DHT22;44883;52.760;6.610;2022-08-07T05:05:16;11.50;99.90
59098;DHT22;44883;52.760;6.610;2022-08-07T05:10:22;12.60;99.90
59098;DHT22;44883;52.760;6.610;2022-08-07T05:12:57;13.60;99.90
59098;DHT22;44883;52.760;6.610;2022-08-07T05:15:29;14.50;99.90
59098;DHT22;44883;52.760;6.610;2022-08-07T05:18:00;15.30;98.10
59098;DHT22;44883;52.760;6.610;2022-08-07T05:20:32;16.00;96.10
59098;DHT22;44883;52.760;6.610;2022-08-07T05:23:04;16.70;93.70
59098;DHT22;44883;52.760;6.610;2022-08-07T05:25:32;17.20;92.80
59098;DHT22;44883;52.760;6.610;2022-08-07T05:27:59;17.70;91.10
59098;DHT22;44883;52.760;6.610;2022-08-07T05:30:26;18.10;90.60
59098;DHT22;44883;52.760;6.610;2022-08-07T05:32:53;18.40;88.00
59098;DHT22;44883;52.760;6.610;2022-08-07T05:35:20;18.80;85.70
59098;DHT22;44883;52.760;6.610;2022-08-07T05:37:46;19.20;83.30
59098;DHT22;44883;52.760;6.610;2022-08-07T05:40:12;19.70;77.50
59098;DHT22;44883;52.760;6.610;2022-08-07T05:42:39;20.00;73.70
59098;DHT22;44883;52.760;6.610;2022-08-07T05:45:06;20.40;71.80
59098;DHT22;44883;52.760;6.610;2022-08-07T05:47:32;20.80;70.40
59098;DHT22;44883;52.760;6.610;2022-08-07T05:49:59;21.10;70.10
59098;DHT22;44883;52.760;6.610;2022-08-07T05:52:26;21.70;65.20
59098;DHT22;44883;52.760;6.610;2022-08-07T05:54:51;22.40;61.00
59098;DHT22;44883;52.760;6.610;2022-08-07T05:57:18;22.90;57.50
59098;DHT22;44883;52.760;6.610;2022-08-07T05:59:45;23.40;55.80
59098;DHT22;44883;52.760;6.610;2022-08-07T06:02:13;23.80;54.60
59098;DHT22;44883;52.760;6.610;2022-08-07T06:04:44;24.20;52.80
59098;DHT22;44883;52.760;6.610;2022-08-07T06:07:11;24.40;52.50
59098;DHT22;44883;52.760;6.610;2022-08-07T06:09:36;24.70;51.80
59098;DHT22;44883;52.760;6.610;2022-08-07T06:12:04;25.10;50.30
59098;DHT22;44883;52.760;6.610;2022-08-07T06:14:30;25.20;50.00
59098;DHT22;44883;52.760;6.610;2022-08-07T06:16:55;25.50;49.00
59098;DHT22;44883;52.760;6.610;2022-08-07T06:19:21;25.70;49.40
59098;DHT22;44883;52.760;6.610;2022-08-07T06:21:48;26.00;49.50
59098;DHT22;44883;52.760;6.610;2022-08-07T06:24:14;26.40;48.90
59098;DHT22;44883;52.760;6.610;2022-08-07T06:26:40;26.80;47.30
59098;DHT22;44883;52.760;6.610;2022-08-07T06:29:06;27.00;47.20
59098;DHT22;44883;52.760;6.610;2022-08-07T06:31:32;27.30;46.50
59098;DHT22;44883;52.760;6.610;2022-08-07T06:33:57;27.80;43.50
59098;DHT22;44883;52.760;6.610;2022-08-07T06:36:23;27.90;42.50
59098;DHT22;44883;52.760;6.610;2022-08-07T06:38:51;28.20;41.20
59098;DHT22;44883;52.760;6.610;2022-08-07T06:41:41;28.20;41.30
59098;DHT22;44883;52.760;6.610;2022-08-07T06:44:10;28.30;38.30
59098;DHT22;44883;52.760;6.610;2022-08-07T06:46:37;28.30;40.10
59098;DHT22;44883;52.760;6.610;2022-08-07T06:49:04;28.10;39.90
59098;DHT22;44883;52.760;6.610;2022-08-07T06:51:32;28.00;40.50
59098;DHT22;44883;52.760;6.610;2022-08-07T06:54:00;27.80;40.50
59098;DHT22;44883;52.760;6.610;2022-08-07T06:56:30;27.60;40.80
59098;DHT22;44883;52.760;6.610;2022-08-07T06:59:17;27.60;40.80
59098;DHT22;44883;52.760;6.610;2022-08-07T07:01:47;27.40;41.30
59098;DHT22;44883;52.760;6.610;2022-08-07T07:04:13;27.40;41.10
59098;DHT22;44883;52.760;6.610;2022-08-07T07:06:39;27.50;40.90
59098;DHT22;44883;52.760;6.610;2022-08-07T07:09:25;27.30;41.60
59098;DHT22;44883;52.760;6.610;2022-08-07T07:17:14;28.10;41.30
59098;DHT22;44883;52.760;6.610;2022-08-07T07:19:46;28.10;42.50
59098;DHT22;44883;52.760;6.610;2022-08-07T07:22:14;28.40;40.70
59098;DHT22;44883;52.760;6.610;2022-08-07T07:24:41;28.90;38.90
59098;DHT22;44883;52.760;6.610;2022-08-07T07:27:07;28.30;40.80
59098;DHT22;44883;52.760;6.610;2022-08-07T07:29:36;29.20;41.00
59098;DHT22;44883;52.760;6.610;2022-08-07T07:32:07;29.60;39.40
59098;DHT22;44883;52.760;6.610;2022-08-07T07:34:36;29.90;37.90
59098;DHT22;44883;52.760;6.610;2022-08-07T07:37:03;30.10;38.40
59098;DHT22;44883;52.760;6.610;2022-08-07T07:39:31;30.30;39.00
59098;DHT22;44883;52.760;6.610;2022-08-07T07:41:58;30.90;37.80
59098;DHT22;44883;52.760;6.610;2022-08-07T07:44:26;31.20;35.80
59098;DHT22;44883;52.760;6.610;2022-08-07T07:46:53;30.90;35.40
59098;DHT22;44883;52.760;6.610;2022-08-07T07:49:22;30.80;34.80
59098;DHT22;44883;52.760;6.610;2022-08-07T07:51:49;30.50;35.00
59098;DHT22;44883;52.760;6.610;2022-08-07T07:54:16;30.30;35.90
59098;DHT22;44883;52.760;6.610;2022-08-07T07:56:43;30.40;36.00
59098;DHT22;44883;52.760;6.610;2022-08-07T07:59:11;30.50;34.50
59098;DHT22;44883;52.760;6.610;2022-08-07T08:01:42;30.30;34.90
59098;DHT22;44883;52.760;6.610;2022-08-07T08:04:10;30.40;35.70
59098;DHT22;44883;52.760;6.610;2022-08-07T08:06:38;30.20;35.40
59098;DHT22;44883;52.760;6.610;2022-08-07T08:09:06;30.60;34.20
59098;DHT22;44883;52.760;6.610;2022-08-07T08:11:33;30.00;33.90
59098;DHT22;44883;52.760;6.610;2022-08-07T08:13:59;30.10;34.40
59098;DHT22;44883;52.760;6.610;2022-08-07T08:16:37;30.00;35.70
59098;DHT22;44883;52.760;6.610;2022-08-07T08:19:07;30.10;38.30
59098;DHT22;44883;52.760;6.610;2022-08-07T08:21:36;30.20;34.20
59098;DHT22;44883;52.760;6.610;2022-08-07T08:24:23;30.30;34.60
59098;DHT22;44883;52.760;6.610;2022-08-07T08:27:08;30.40;35.80
59098;DHT22;44883;52.760;6.610;2022-08-07T08:29:49;30.60;34.30
59098;DHT22;44883;52.760;6.610;2022-08-07T08:32:19;31.20;36.70
59098;DHT22;44883;52.760;6.610;2022-08-07T08:34:47;31.80;36.40
59098;DHT22;44883;52.760;6.610;2022-08-07T08:37:15;32.20;35.20
59098;DHT22;44883;52.760;6.610;2022-08-07T08:39:43;32.70;34.60
59098;DHT22;44883;52.760;6.610;2022-08-07T08:42:16;32.70;33.10
59098;DHT22;44883;52.760;6.610;2022-08-07T08:47:59;31.80;31.00
59098;DHT22;44883;52.760;6.610;2022-08-07T08:50:31;31.40;31.00
59098;DHT22;44883;52.760;6.610;2022-08-07T08:53:08;31.40;33.00
59098;DHT22;44883;52.760;6.610;2022-08-07T08:55:37;31.60;34.00
59098;DHT22;44883;52.760;6.610;2022-08-07T08:58:13;32.10;34.50
59098;DHT22;44883;52.760;6.610;2022-08-07T09:00:59;32.30;32.30
59098;DHT22;44883;52.760;6.610;2022-08-07T09:03:43;32.20;32.00
59098;DHT22;44883;52.760;6.610;2022-08-07T09:06:20;31.80;31.60
59098;DHT22;44883;52.760;6.610;2022-08-07T09:08:59;31.70;33.40
59098;DHT22;44883;52.760;6.610;2022-08-07T09:17:02;31.50;35.40
59098;DHT22;44883;52.760;6.610;2022-08-07T09:19:54;31.80;37.00
59098;DHT22;44883;52.760;6.610;2022-08-07T09:25:33;32.60;33.50
59098;DHT22;44883;52.760;6.610;2022-08-07T09:28:04;32.70;33.40
59098;DHT22;44883;52.760;6.610;2022-08-07T09:33:50;32.90;34.60
59098;DHT22;44883;52.760;6.610;2022-08-07T09:36:36;33.30;33.50
59098;DHT22;44883;52.760;6.610;2022-08-07T09:42:05;33.10;32.70
59098;DHT22;44883;52.760;6.610;2022-08-07T09:44:46;33.20;33.70
59098;DHT22;44883;52.760;6.610;2022-08-07T09:50:19;33.60;32.00
59098;DHT22;44883;52.760;6.610;2022-08-07T10:09:58;32.80;33.30
59098;DHT22;44883;52.760;6.610;2022-08-07T10:15:42;32.40;33.80
59098;DHT22;44883;52.760;6.610;2022-08-07T10:18:49;31.60;30.90
59098;DHT22;44883;52.760;6.610;2022-08-07T10:26:55;29.60;36.60
59098;DHT22;44883;52.760;6.610;2022-08-07T10:29:51;30.20;34.90
59098;DHT22;44883;52.760;6.610;2022-08-07T10:32:57;30.60;33.90
59098;DHT22;44883;52.760;6.610;2022-08-07T10:46:17;30.20;30.00
59098;DHT22;44883;52.760;6.610;2022-08-07T10:49:07;30.50;35.70
59098;DHT22;44883;52.760;6.610;2022-08-07T10:52:03;30.50;33.90
59098;DHT22;44883;52.760;6.610;2022-08-07T10:54:41;30.50;35.80
59098;DHT22;44883;52.760;6.610;2022-08-07T11:00:10;29.90;34.80
59098;DHT22;44883;52.760;6.610;2022-08-07T11:02:45;29.60;34.90
59098;DHT22;44883;52.760;6.610;2022-08-07T11:05:23;29.30;36.60
59098;DHT22;44883;52.760;6.610;2022-08-07T11:08:08;29.10;36.90
59098;DHT22;44883;52.760;6.610;2022-08-07T11:10:50;29.00;33.90
59098;DHT22;44883;52.760;6.610;2022-08-07T11:13:37;28.40;33.30
59098;DHT22;44883;52.760;6.610;2022-08-07T11:22:00;28.60;37.40
59098;DHT22;44883;52.760;6.610;2022-08-07T11:24:36;28.80;37.00
59098;DHT22;44883;52.760;6.610;2022-08-07T11:27:33;28.90;36.40
59098;DHT22;44883;52.760;6.610;2022-08-07T11:30:05;28.70;35.30
59098;DHT22;44883;52.760;6.610;2022-08-07T11:32:51;28.50;37.50
59098;DHT22;44883;52.760;6.610;2022-08-07T11:35:22;28.60;37.10
59098;DHT22;44883;52.760;6.610;2022-08-07T11:38:13;28.70;36.10
59098;DHT22;44883;52.760;6.610;2022-08-07T11:47:07;28.70;38.10
59098;DHT22;44883;52.760;6.610;2022-08-07T11:55:13;28.60;35.50
59098;DHT22;44883;52.760;6.610;2022-08-07T12:07:02;27.20;38.70
59098;DHT22;44883;52.760;6.610;2022-08-07T12:09:34;27.30;40.00
59098;DHT22;44883;52.760;6.610;2022-08-07T12:14:30;27.40;39.40
59098;DHT22;44883;52.760;6.610;2022-08-07T12:17:06;27.50;39.10
59098;DHT22;44883;52.760;6.610;2022-08-07T12:19:55;27.50;39.00
59098;DHT22;44883;52.760;6.610;2022-08-07T12:22:45;27.70;37.70
59098;DHT22;44883;52.760;6.610;2022-08-07T12:25:19;27.80;36.70
59098;DHT22;44883;52.760;6.610;2022-08-07T12:28:14;27.70;35.00
59098;DHT22;44883;52.760;6.610;2022-08-07T12:30:43;27.10;34.80
59098;DHT22;44883;52.760;6.610;2022-08-07T12:33:13;27.20;36.70
59098;DHT22;44883;52.760;6.610;2022-08-07T12:35:44;27.40;37.10
59098;DHT22;44883;52.760;6.610;2022-08-07T12:38:12;27.50;37.40
59098;DHT22;44883;52.760;6.610;2022-08-07T12:40:41;27.60;35.60
59098;DHT22;44883;52.760;6.610;2022-08-07T12:43:08;27.70;35.00
59098;DHT22;44883;52.760;6.610;2022-08-07T12:45:43;27.80;35.90
59098;DHT22;44883;52.760;6.610;2022-08-07T12:48:28;27.90;35.90
59098;DHT22;44883;52.760;6.610;2022-08-07T12:51:12;28.00;33.80
59098;DHT22;44883;52.760;6.610;2022-08-07T12:58:48;28.10;35.20
59098;DHT22;44883;52.760;6.610;2022-08-07T13:12:49;27.20;29.70
59098;DHT22;44883;52.760;6.610;2022-08-07T13:21:00;27.20;35.60
59098;DHT22;44883;52.760;6.610;2022-08-07T13:26:48;27.60;37.10
59098;DHT22;44883;52.760;6.610;2022-08-07T13:29:32;27.60;34.30
59098;DHT22;44883;52.760;6.610;2022-08-07T13:32:12;27.20;33.60
59098;DHT22;44883;52.760;6.610;2022-08-07T13:37:52;26.30;35.50
59098;DHT22;44883;52.760;6.610;2022-08-07T13:40:33;25.90;35.10
59098;DHT22;44883;52.760;6.610;2022-08-07T13:43:03;26.20;37.50
59098;DHT22;44883;52.760;6.610;2022-08-07T13:45:30;26.10;37.20
59098;DHT22;44883;52.760;6.610;2022-08-07T13:47:57;26.40;38.70
59098;DHT22;44883;52.760;6.610;2022-08-07T13:50:25;26.70;37.70
59098;DHT22;44883;52.760;6.610;2022-08-07T13:52:53;26.30;34.30
59098;DHT22;44883;52.760;6.610;2022-08-07T13:55:21;26.10;35.80
59098;DHT22;44883;52.760;6.610;2022-08-07T13:58:05;26.00;36.40
59098;DHT22;44883;52.760;6.610;2022-08-07T14:00:50;25.90;37.10
59098;DHT22;44883;52.760;6.610;2022-08-07T14:03:18;25.80;36.00
59098;DHT22;44883;52.760;6.610;2022-08-07T14:05:46;25.80;36.80
59098;DHT22;44883;52.760;6.610;2022-08-07T14:08:13;25.80;37.20
59098;DHT22;44883;52.760;6.610;2022-08-07T14:10:40;25.50;36.90
59098;DHT22;44883;52.760;6.610;2022-08-07T14:13:07;25.70;37.20
59098;DHT22;44883;52.760;6.610;2022-08-07T14:15:39;25.90;36.60
59098;DHT22;44883;52.760;6.610;2022-08-07T14:18:16;25.90;38.30
59098;DHT22;44883;52.760;6.610;2022-08-07T14:20:48;26.30;38.90
59098;DHT22;44883;52.760;6.610;2022-08-07T14:23:26;26.50;38.10
59098;DHT22;44883;52.760;6.610;2022-08-07T14:25:58;26.60;39.00
59098;DHT22;44883;52.760;6.610;2022-08-07T14:28:25;26.90;38.40
59098;DHT22;44883;52.760;6.610;2022-08-07T14:30:53;27.00;37.80
59098;DHT22;44883;52.760;6.610;2022-08-07T14:33:20;27.10;37.80
59098;DHT22;44883;52.760;6.610;2022-08-07T14:35:46;26.90;37.30
59098;DHT22;44883;52.760;6.610;2022-08-07T14:38:13;26.70;37.40
59098;DHT22;44883;52.760;6.610;2022-08-07T14:40:40;26.30;35.50
59098;DHT22;44883;52.760;6.610;2022-08-07T14:43:08;25.80;36.00
59098;DHT22;44883;52.760;6.610;2022-08-07T14:45:46;25.60;36.30
59098;DHT22;44883;52.760;6.610;2022-08-07T14:48:13;25.60;38.80
59098;DHT22;44883;52.760;6.610;2022-08-07T14:50:44;25.60;38.80
59098;DHT22;44883;52.760;6.610;2022-08-07T14:53:12;25.50;40.20
59098;DHT22;44883;52.760;6.610;2022-08-07T14:55:40;25.40;39.60
59098;DHT22;44883;52.760;6.610;2022-08-07T14:58:10;25.20;40.00
59098;DHT22;44883;52.760;6.610;2022-08-07T15:00:40;25.10;40.70
59098;DHT22;44883;52.760;6.610;2022-08-07T15:03:07;25.40;40.80
59098;DHT22;44883;52.760;6.610;2022-08-07T15:05:34;25.60;39.30
59098;DHT22;44883;52.760;6.610;2022-08-07T15:08:07;25.80;39.80
59098;DHT22;44883;52.760;6.610;2022-08-07T15:10:35;26.00;38.30
59098;DHT22;44883;52.760;6.610;2022-08-07T15:13:10;26.10;39.70
59098;DHT22;44883;52.760;6.610;2022-08-07T15:15:43;26.30;40.20
59098;DHT22;44883;52.760;6.610;2022-08-07T15:18:13;26.10;40.20
59098;DHT22;44883;52.760;6.610;2022-08-07T15:20:41;25.90;41.00
59098;DHT22;44883;52.760;6.610;2022-08-07T15:23:14;25.80;41.00
59098;DHT22;44883;52.760;6.610;2022-08-07T15:25:55;25.60;41.70
59098;DHT22;44883;52.760;6.610;2022-08-07T15:28:25;25.40;42.40
59098;DHT22;44883;52.760;6.610;2022-08-07T15:30:54;25.30;42.50
59098;DHT22;44883;52.760;6.610;2022-08-07T15:33:21;25.20;42.70
59098;DHT22;44883;52.760;6.610;2022-08-07T15:35:52;25.30;42.60
59098;DHT22;44883;52.760;6.610;2022-08-07T15:38:38;25.40;42.40
59098;DHT22;44883;52.760;6.610;2022-08-07T15:41:09;25.30;42.50
59098;DHT22;44883;52.760;6.610;2022-08-07T15:43:36;25.20;43.10
59098;DHT22;44883;52.760;6.610;2022-08-07T15:46:18;25.10;43.50
59098;DHT22;44883;52.760;6.610;2022-08-07T15:48:47;24.90;43.90
59098;DHT22;44883;52.760;6.610;2022-08-07T15:51:14;24.50;43.70
59098;DHT22;44883;52.760;6.610;2022-08-07T15:53:42;24.50;43.90
59098;DHT22;44883;52.760;6.610;2022-08-07T15:56:10;24.40;44.00
59098;DHT22;44883;52.760;6.610;2022-08-07T16:01:18;24.40;44.00
59098;DHT22;44883;52.760;6.610;2022-08-07T16:03:51;24.30;45.00
59098;DHT22;44883;52.760;6.610;2022-08-07T16:06:38;24.30;45.30
59098;DHT22;44883;52.760;6.610;2022-08-07T16:09:19;24.20;45.30
59098;DHT22;44883;52.760;6.610;2022-08-07T16:12:21;24.10;46.50
59098;DHT22;44883;52.760;6.610;2022-08-07T16:18:02;24.20;47.10
59098;DHT22;44883;52.760;6.610;2022-08-07T16:23:58;24.60;45.10
59098;DHT22;44883;52.760;6.610;2022-08-07T16:34:05;24.90;43.50
59098;DHT22;44883;52.760;6.610;2022-08-07T16:36:37;24.80;43.80
59098;DHT22;44883;52.760;6.610;2022-08-07T16:50:36;24.80;44.70
59098;DHT22;44883;52.760;6.610;2022-08-07T16:59:01;25.00;44.00
59098;DHT22;44883;52.760;6.610;2022-08-07T17:02:04;24.90;43.30
59098;DHT22;44883;52.760;6.610;2022-08-07T17:04:42;24.80;43.50
59098;DHT22;44883;52.760;6.610;2022-08-07T17:09:57;24.60;44.30
59098;DHT22;44883;52.760;6.610;2022-08-07T17:15:39;24.30;43.90
59098;DHT22;44883;52.760;6.610;2022-08-07T17:18:43;24.10;44.50
59098;DHT22;44883;52.760;6.610;2022-08-07T17:21:16;24.10;44.40
59098;DHT22;44883;52.760;6.610;2022-08-07T17:23:53;24.00;44.40
59098;DHT22;44883;52.760;6.610;2022-08-07T17:26:43;23.90;44.60
59098;DHT22;44883;52.760;6.610;2022-08-07T17:29:15;23.80;44.90
59098;DHT22;44883;52.760;6.610;2022-08-07T17:32:04;23.70;44.90
59098;DHT22;44883;52.760;6.610;2022-08-07T17:34:36;23.60;45.30
59098;DHT22;44883;52.760;6.610;2022-08-07T17:37:10;23.50;44.60
59098;DHT22;44883;52.760;6.610;2022-08-07T17:39:58;23.40;45.00
59098;DHT22;44883;52.760;6.610;2022-08-07T17:45:10;23.30;46.40
59098;DHT22;44883;52.760;6.610;2022-08-07T17:47:43;23.30;46.70
59098;DHT22;44883;52.760;6.610;2022-08-07T17:50:21;23.20;46.70
59098;DHT22;44883;52.760;6.610;2022-08-07T17:53:34;23.20;46.90
59098;DHT22;44883;52.760;6.610;2022-08-07T17:56:08;23.10;47.10
59098;DHT22;44883;52.760;6.610;2022-08-07T17:58:49;23.00;47.30
59098;DHT22;44883;52.760;6.610;2022-08-07T18:01:34;22.90;47.20
59098;DHT22;44883;52.760;6.610;2022-08-07T18:04:33;22.80;47.50
59098;DHT22;44883;52.760;6.610;2022-08-07T18:09:33;22.60;48.50
59098;DHT22;44883;52.760;6.610;2022-08-07T18:12:11;22.60;49.00
59098;DHT22;44883;52.760;6.610;2022-08-07T18:14:49;22.50;48.80
59098;DHT22;44883;52.760;6.610;2022-08-07T18:17:34;22.50;49.40
59098;DHT22;44883;52.760;6.610;2022-08-07T18:20:28;22.40;49.60
59098;DHT22;44883;52.760;6.610;2022-08-07T18:23:03;22.30;49.80
59098;DHT22;44883;52.760;6.610;2022-08-07T18:25:32;22.30;50.10
59098;DHT22;44883;52.760;6.610;2022-08-07T18:29:02;22.20;50.30
59098;DHT22;44883;52.760;6.610;2022-08-07T18:33:43;22.10;50.60
59098;DHT22;44883;52.760;6.610;2022-08-07T18:36:37;22.00;50.80
59098;DHT22;44883;52.760;6.610;2022-08-07T18:39:24;21.80;51.60
59098;DHT22;44883;52.760;6.610;2022-08-07T18:44:59;21.50;53.40
59098;DHT22;44883;52.760;6.610;2022-08-07T18:50:09;21.30;55.20
59098;DHT22;44883;52.760;6.610;2022-08-07T18:53:07;21.20;56.60
59098;DHT22;44883;52.760;6.610;2022-08-07T18:58:33;21.10;60.50
59098;DHT22;44883;52.760;6.610;2022-08-07T19:03:41;21.00;65.30
59098;DHT22;44883;52.760;6.610;2022-08-07T19:06:13;20.90;68.20
59098;DHT22;44883;52.760;6.610;2022-08-07T19:11:09;20.70;71.10
59098;DHT22;44883;52.760;6.610;2022-08-07T19:16:32;20.50;75.00
59098;DHT22;44883;52.760;6.610;2022-08-07T19:19:11;20.40;76.20
59098;DHT22;44883;52.760;6.610;2022-08-07T19:24:12;20.30;79.00
59098;DHT22;44883;52.760;6.610;2022-08-07T19:26:43;20.20;79.60